Time;durP1;ratioP1;P1;durP2;ratioP2;P2;SDS_P1;SDS_P2;PMS_P1;PMS_P2;Temp;Humidity;BMP_temperature;BMP_pressure;BME280_temperature;BME280_humidity;BME280_pressure;Samples;Min_cycle;Max_cycle;Signal;HPM_P1;HPM_P2
2023/04/09 00:01:57;;;;;;;6.05;5.45;;;11.70;99.90;;;;;;5054909;28;20384;-74
2023/04/09 00:04:23;;;;;;;6.57;5.45;;;11.70;99.90;;;;;;5037394;28;20055;-74
2023/04/09 00:06:49;;;;;;;7.05;5.90;;;11.70;99.90;;;;;;5055342;28;20502;-74
2023/04/09 00:09:15;;;;;;;8.50;5.90;;;11.80;99.90;;;;;;5055367;28;20029;-74
2023/04/09 00:11:41;;;;;;;7.75;6.10;;;11.70;99.90;;;;;;5054101;28;20025;-75
2023/04/09 00:14:07;;;;;;;7.97;5.82;;;11.70;99.90;;;;;;5053582;28;20498;-74
2023/04/09 00:16:33;;;;;;;7.78;5.90;;;11.90;99.90;;;;;;5053498;28;20028;-74
2023/04/09 00:18:59;;;;;;;7.68;5.70;;;12.00;99.90;;;;;;5053957;28;20525;-74
2023/04/09 00:21:26;;;;;;;6.00;5.40;;;12.20;99.90;;;;;;5055243;28;20044;-74
2023/04/09 00:23:52;;;;;;;7.32;5.80;;;12.20;99.90;;;;;;5054552;28;20495;-74
2023/04/09 00:26:18;;;;;;;8.90;5.70;;;12.00;99.90;;;;;;5054795;28;20033;-74
2023/04/09 00:28:44;;;;;;;6.55;5.32;;;11.90;99.90;;;;;;5054869;28;20396;-74
2023/04/09 00:31:10;;;;;;;6.68;5.60;;;11.80;99.90;;;;;;5051843;28;20025;-74
2023/04/09 00:33:36;;;;;;;7.72;5.38;;;11.90;99.90;;;;;;5053643;28;20387;-74
2023/04/09 00:36:02;;;;;;;7.00;5.40;;;11.80;99.90;;;;;;5053749;28;20021;-74
2023/04/09 00:38:28;;;;;;;7.05;5.53;;;11.70;99.90;;;;;;5053450;28;20033;-74
2023/04/09 00:40:55;;;;;;;6.65;5.72;;;11.70;99.90;;;;;;5054747;28;20033;-74
2023/04/09 00:43:21;;;;;;;7.50;5.43;;;11.80;99.90;;;;;;5051832;28;20391;-74
2023/04/09 00:45:47;;;;;;;7.28;5.57;;;11.80;99.90;;;;;;5016625;28;20042;-74
2023/04/09 00:48:13;;;;;;;7.03;5.53;;;11.90;99.90;;;;;;5034711;28;20029;-74
2023/04/09 00:50:39;;;;;;;6.28;5.68;;;11.90;99.90;;;;;;5023320;28;20400;-74
2023/04/09 00:53:05;;;;;;;6.68;5.75;;;11.70;99.90;;;;;;5033366;28;20392;-74
2023/04/09 00:55:31;;;;;;;8.57;5.40;;;11.70;99.90;;;;;;5033379;28;20026;-74
2023/04/09 00:57:57;;;;;;;7.22;5.25;;;11.80;99.90;;;;;;5016103;28;20037;-74
2023/04/09 01:00:23;;;;;;;7.22;5.70;;;11.60;99.90;;;;;;5033931;28;20041;-74
2023/04/09 01:02:51;;;;;;;6.80;5.63;;;11.50;99.90;;;;;;5033155;28;20017;-74
2023/04/09 01:05:17;;;;;;;6.10;5.50;;;11.50;99.90;;;;;;5033185;28;20056;-74
2023/04/09 01:07:55;;;;;;;6.20;5.60;;;11.30;99.90;;;;;;5033184;28;20025;-74
2023/04/09 01:10:41;;;;;;;6.28;5.40;;;11.20;99.90;;;;;;5034375;28;20034;-74
2023/04/09 01:13:23;;;;;;;6.88;5.47;;;11.10;99.90;;;;;;5032638;28;20029;-75
2023/04/09 01:15:53;;;;;;;7.60;6.00;;;11.10;99.90;;;;;;5017369;28;20399;-74
2023/04/09 01:18:57;;;;;;;8.23;5.55;;;11.10;99.90;;;;;;5033123;28;20025;-74
2023/04/09 01:21:26;;;;;;;6.60;5.53;;;11.10;99.90;;;;;;5015999;28;20041;-74
2023/04/09 01:24:18;;;;;;;8.30;6.10;;;11.10;99.90;;;;;;5032905;28;20029;-74
2023/04/09 01:26:55;;;;;;;7.45;5.90;;;11.20;99.90;;;;;;5040499;28;20033;-74
2023/04/09 01:29:22;;;;;;;6.07;5.47;;;11.20;99.90;;;;;;5068974;28;20372;-74
2023/04/09 01:31:48;;;;;;;8.07;6.20;;;11.10;99.90;;;;;;5051926;28;20025;-74
2023/04/09 01:34:15;;;;;;;8.02;5.32;;;11.10;99.90;;;;;;5052573;28;20021;-74
2023/04/09 01:36:41;;;;;;;6.72;6.07;;;11.20;99.90;;;;;;5035581;28;20414;-74
2023/04/09 01:39:07;;;;;;;6.38;5.60;;;11.10;99.90;;;;;;5052444;28;20434;-74
2023/04/09 01:41:33;;;;;;;7.40;5.80;;;11.20;99.90;;;;;;5051734;28;20036;-74
2023/04/09 01:44:00;;;;;;;7.55;5.57;;;11.30;99.90;;;;;;5052200;28;20025;-74
2023/04/09 01:46:26;;;;;;;7.05;5.97;;;11.30;99.90;;;;;;5068565;28;20063;-74
2023/04/09 01:48:53;;;;;;;9.77;6.32;;;11.30;99.90;;;;;;5068898;28;20028;-74
2023/04/09 01:51:19;;;;;;;6.28;5.47;;;11.40;99.90;;;;;;5036653;28;20515;-74
2023/04/09 01:53:45;;;;;;;6.80;5.95;;;11.30;99.90;;;;;;5032269;28;20025;-74
2023/04/09 01:56:11;;;;;;;7.22;5.55;;;11.30;99.90;;;;;;5033069;28;20041;-75
2023/04/09 01:58:37;;;;;;;7.20;5.70;;;11.20;99.90;;;;;;5032171;28;20371;-74
2023/04/09 02:01:15;;;;;;;6.55;6.00;;;11.30;99.90;;;;;;5031029;28;20040;-74
2023/04/09 02:03:59;;;;;;;8.25;5.60;;;11.30;99.90;;;;;;5025040;28;20040;-74
2023/04/09 02:06:31;;;;;;;6.40;5.75;;;11.20;99.90;;;;;;5030419;28;20052;-74
2023/04/09 02:08:59;;;;;;;6.82;5.75;;;11.10;99.90;;;;;;5051760;28;20029;-75
2023/04/09 02:11:25;;;;;;;7.20;6.20;;;11.00;99.90;;;;;;5049696;28;20029;-74
2023/04/09 02:13:52;;;;;;;7.28;6.32;;;11.10;99.90;;;;;;5033555;28;20028;-75
2023/04/09 02:16:18;;;;;;;9.73;6.03;;;11.10;99.90;;;;;;5049409;28;20399;-75
2023/04/09 02:18:45;;;;;;;6.60;5.95;;;11.00;99.90;;;;;;5050050;28;20029;-75
2023/04/09 02:21:12;;;;;;;7.60;6.80;;;11.10;99.90;;;;;;5033263;28;20029;-75
2023/04/09 02:23:38;;;;;;;8.25;6.95;;;11.00;99.90;;;;;;5051022;28;20476;-74
2023/04/09 02:26:04;;;;;;;8.00;7.30;;;11.10;99.90;;;;;;5049417;28;20045;-75
2023/04/09 02:28:30;;;;;;;8.32;7.72;;;11.20;99.90;;;;;;5051486;28;20052;-75
2023/04/09 02:30:56;;;;;;;9.15;8.15;;;11.20;99.90;;;;;;5050573;28;20037;-74
2023/04/09 02:33:22;;;;;;;9.05;8.07;;;11.20;99.90;;;;;;5032760;28;20392;-75
2023/04/09 02:35:49;;;;;;;8.68;7.80;;;11.10;99.90;;;;;;5050581;28;20039;-75
2023/04/09 02:38:15;;;;;;;7.88;7.18;;;10.90;99.90;;;;;;5051264;28;20033;-74
2023/04/09 02:40:41;;;;;;;7.85;7.05;;;11.00;99.90;;;;;;5050993;28;20491;-74
2023/04/09 02:43:07;;;;;;;7.00;6.30;;;11.00;99.90;;;;;;5052373;28;20029;-74
2023/04/09 02:45:34;;;;;;;7.35;6.68;;;11.10;99.90;;;;;;5050748;28;20044;-74
2023/04/09 02:48:00;;;;;;;8.20;7.07;;;11.20;99.90;;;;;;5052605;28;20021;-74
2023/04/09 02:50:26;;;;;;;8.05;6.75;;;11.30;99.90;;;;;;5044225;28;20033;-75
2023/04/09 02:52:52;;;;;;;7.47;6.72;;;11.30;99.90;;;;;;5031182;28;20049;-74
2023/04/09 02:55:20;;;;;;;8.20;6.93;;;11.00;99.90;;;;;;5030753;28;20045;-74
2023/04/09 02:57:46;;;;;;;11.38;6.78;;;11.00;99.90;;;;;;5015287;28;20021;-74
2023/04/09 03:00:12;;;;;;;10.00;9.10;;;10.80;99.90;;;;;;5030578;28;20395;-74
2023/04/09 03:02:38;;;;;;;9.65;8.82;;;10.80;99.90;;;;;;5031111;28;20017;-74
2023/04/09 03:05:05;;;;;;;10.65;9.65;;;10.90;99.90;;;;;;5031085;28;20495;-75
2023/04/09 03:07:31;;;;;;;8.00;7.15;;;10.70;99.90;;;;;;5031907;28;20037;-74
2023/04/09 03:09:57;;;;;;;7.95;7.22;;;10.50;99.90;;;;;;5032349;28;20445;-74
2023/04/09 03:12:23;;;;;;;8.27;6.82;;;10.50;99.90;;;;;;5032190;28;20026;-74
2023/04/09 03:14:49;;;;;;;9.43;8.52;;;10.50;99.90;;;;;;5032236;28;20036;-74
2023/04/09 03:17:15;;;;;;;8.05;6.82;;;10.60;99.90;;;;;;5031771;28;20041;-74
2023/04/09 03:19:41;;;;;;;10.57;9.65;;;10.60;99.90;;;;;;5032105;28;20037;-74
2023/04/09 03:22:08;;;;;;;10.18;7.25;;;10.60;99.90;;;;;;5031863;28;20030;-74
2023/04/09 03:24:34;;;;;;;7.38;6.68;;;10.70;99.90;;;;;;5032114;28;20030;-75
2023/04/09 03:27:00;;;;;;;8.50;6.65;;;10.50;99.90;;;;;;5042161;28;20499;-74
2023/04/09 03:29:26;;;;;;;7.13;6.47;;;10.50;99.90;;;;;;5050848;28;20376;-74
2023/04/09 03:31:52;;;;;;;9.32;7.10;;;10.40;99.90;;;;;;5051484;28;20052;-74
2023/04/09 03:34:18;;;;;;;10.50;8.88;;;10.20;99.90;;;;;;5051877;28;20029;-74
2023/04/09 03:36:44;;;;;;;12.30;11.13;;;10.10;99.90;;;;;;5050549;28;20033;-74
2023/04/09 03:39:10;;;;;;;10.70;7.40;;;10.00;99.90;;;;;;5050719;28;20275;-74
2023/04/09 03:41:37;;;;;;;8.95;6.78;;;10.00;99.90;;;;;;5051718;28;20028;-74
2023/04/09 03:44:03;;;;;;;7.65;6.95;;;10.20;99.90;;;;;;5050678;28;20028;-75
2023/04/09 03:46:29;;;;;;;7.47;6.70;;;10.10;99.90;;;;;;5050016;28;20514;-74
2023/04/09 03:48:55;;;;;;;7.65;6.47;;;10.10;99.90;;;;;;5050707;28;20028;-74
2023/04/09 03:51:21;;;;;;;7.05;6.10;;;10.10;99.90;;;;;;5035637;28;20492;-74
2023/04/09 03:53:47;;;;;;;8.73;6.20;;;10.10;99.90;;;;;;5031824;28;20030;-74
2023/04/09 03:56:13;;;;;;;8.88;6.22;;;10.10;99.90;;;;;;5031751;28;20036;-74
2023/04/09 03:58:39;;;;;;;7.18;6.47;;;9.90;99.90;;;;;;5030647;28;20025;-74
2023/04/09 04:01:05;;;;;;;9.00;6.70;;;9.80;99.90;;;;;;5030111;28;20037;-74
2023/04/09 04:03:32;;;;;;;7.47;6.30;;;9.90;99.90;;;;;;5031646;28;20021;-74
2023/04/09 04:06:02;;;;;;;8.30;6.60;;;9.80;99.90;;;;;;5017039;28;20258;-74
2023/04/09 04:08:28;;;;;;;7.05;6.03;;;9.70;99.90;;;;;;5034271;28;20022;-74
2023/04/09 04:10:54;;;;;;;7.15;6.43;;;9.70;99.90;;;;;;5034513;28;20032;-74
2023/04/09 04:13:20;;;;;;;6.65;6.05;;;9.70;99.90;;;;;;5035333;28;20021;-74
2023/04/09 04:15:47;;;;;;;7.13;6.28;;;9.70;99.90;;;;;;5033080;28;20030;-74
2023/04/09 04:18:13;;;;;;;9.93;6.65;;;9.60;99.90;;;;;;5034078;28;20045;-74
2023/04/09 04:20:39;;;;;;;7.35;6.53;;;9.80;99.90;;;;;;5033657;28;20133;-74
2023/04/09 04:23:05;;;;;;;9.63;6.72;;;9.90;99.90;;;;;;5017491;28;20044;-74
2023/04/09 04:25:31;;;;;;;7.97;6.40;;;10.10;99.90;;;;;;5035174;28;20053;-74
2023/04/09 04:27:57;;;;;;;8.30;6.53;;;10.10;99.90;;;;;;5053116;28;20036;-74
2023/04/09 04:30:23;;;;;;;10.00;6.95;;;10.10;99.90;;;;;;5054585;28;20041;-74
2023/04/09 04:32:49;;;;;;;9.13;6.50;;;10.10;99.90;;;;;;5054805;28;20032;-74
2023/04/09 04:35:15;;;;;;;9.32;6.85;;;9.90;99.90;;;;;;5054576;28;20040;-74
2023/04/09 04:37:42;;;;;;;8.07;7.00;;;10.00;99.90;;;;;;5036704;28;20049;-74
2023/04/09 04:40:08;;;;;;;8.43;7.15;;;10.00;99.90;;;;;;5053578;28;20037;-74
2023/04/09 04:42:34;;;;;;;8.40;7.00;;;9.90;99.90;;;;;;5054576;28;20048;-74
2023/04/09 04:45:00;;;;;;;8.23;6.90;;;9.90;99.90;;;;;;5053357;28;20044;-74
2023/04/09 04:47:26;;;;;;;9.68;7.28;;;9.90;99.90;;;;;;5054229;28;20033;-74
2023/04/09 04:49:53;;;;;;;10.65;6.85;;;9.90;99.90;;;;;;5049639;28;20033;-74
2023/04/09 04:52:19;;;;;;;7.82;6.68;;;9.90;99.90;;;;;;5034418;28;20053;-74
2023/04/09 04:54:45;;;;;;;11.05;7.53;;;9.60;99.90;;;;;;5034726;28;20029;-74
2023/04/09 04:57:11;;;;;;;10.23;7.60;;;9.60;99.90;;;;;;5034594;28;20044;-74
2023/04/09 04:59:38;;;;;;;10.38;7.60;;;9.70;99.90;;;;;;5016837;28;20029;-74
2023/04/09 05:02:05;;;;;;;10.55;7.53;;;9.80;99.90;;;;;;5032860;28;20403;-74
2023/04/09 05:04:31;;;;;;;8.88;7.65;;;9.70;99.90;;;;;;5033927;28;20376;-74
2023/04/09 05:06:57;;;;;;;9.57;7.40;;;9.70;99.90;;;;;;5033188;28;20097;-74
2023/04/09 05:09:24;;;;;;;10.07;7.97;;;9.50;99.90;;;;;;5034428;28;20029;-74
2023/04/09 05:11:50;;;;;;;10.15;7.97;;;9.40;99.90;;;;;;5032934;28;20044;-74
2023/04/09 05:14:16;;;;;;;10.82;8.07;;;9.60;99.90;;;;;;5016591;28;20033;-74
2023/04/09 05:16:42;;;;;;;10.57;7.90;;;9.70;99.90;;;;;;5032915;28;20041;-74
2023/04/09 05:19:08;;;;;;;10.73;8.00;;;9.60;99.90;;;;;;5033900;28;20056;-74
2023/04/09 05:21:34;;;;;;;10.75;8.10;;;9.50;99.90;;;;;;5016053;28;20037;-74
2023/04/09 05:24:00;;;;;;;11.20;7.53;;;9.50;99.90;;;;;;5034118;28;20036;-74
2023/04/09 05:26:26;;;;;;;9.15;7.85;;;9.40;99.90;;;;;;5039564;28;20051;-74
2023/04/09 05:28:53;;;;;;;12.75;8.38;;;9.60;99.90;;;;;;5052583;28;20029;-74
2023/04/09 05:31:19;;;;;;;9.63;7.68;;;9.70;99.90;;;;;;5052288;28;20037;-74
2023/04/09 05:33:45;;;;;;;10.10;8.00;;;9.80;99.90;;;;;;5053450;28;20021;-74
2023/04/09 05:36:15;;;;;;;10.98;7.78;;;9.70;99.90;;;;;;5053657;28;20479;-74
2023/04/09 05:38:42;;;;;;;10.63;8.48;;;9.50;99.90;;;;;;5053660;28;20032;-74
2023/04/09 05:41:08;;;;;;;8.95;7.22;;;9.40;99.90;;;;;;5052328;28;20067;-74
2023/04/09 05:43:35;;;;;;;12.35;7.82;;;9.40;99.90;;;;;;5052180;28;20021;-75
2023/04/09 05:46:01;;;;;;;10.43;8.60;;;9.40;99.90;;;;;;5052939;28;20048;-74
2023/04/09 05:48:27;;;;;;;12.18;8.43;;;9.20;99.90;;;;;;5053156;28;20467;-75
2023/04/09 05:50:53;;;;;;;10.73;8.30;;;9.30;99.90;;;;;;5041398;28;20052;-74
2023/04/09 05:53:20;;;;;;;12.98;8.80;;;9.40;99.90;;;;;;5032263;28;20029;-74
2023/04/09 05:55:48;;;;;;;10.70;8.70;;;9.40;99.90;;;;;;5032009;28;20041;-74
2023/04/09 05:58:14;;;;;;;14.98;10.18;;;9.40;99.90;;;;;;5033324;28;20037;-74
2023/04/09 06:00:41;;;;;;;13.35;9.50;;;9.50;99.90;;;;;;5032900;28;20484;-74
2023/04/09 06:03:08;;;;;;;12.38;9.68;;;9.50;99.90;;;;;;5033405;28;20025;-74
2023/04/09 06:05:34;;;;;;;10.70;8.45;;;9.50;99.90;;;;;;5033103;28;20037;-74
2023/04/09 06:08:00;;;;;;;10.52;8.15;;;9.60;99.90;;;;;;5031766;28;20052;-74
2023/04/09 06:10:26;;;;;;;13.13;9.00;;;9.40;99.90;;;;;;5015271;28;20045;-74
2023/04/09 06:12:52;;;;;;;11.20;8.52;;;9.20;99.90;;;;;;5031859;28;20021;-74
2023/04/09 06:15:19;;;;;;;11.38;8.85;;;9.30;99.90;;;;;;5031577;28;20029;-74
2023/04/09 06:17:45;;;;;;;10.35;8.93;;;9.60;99.90;;;;;;5031533;28;20030;-74
2023/04/09 06:20:11;;;;;;;10.75;8.35;;;10.00;99.90;;;;;;5031730;28;20026;-74
2023/04/09 06:22:37;;;;;;;11.35;8.07;;;10.20;99.90;;;;;;5031782;28;20033;-74
2023/04/09 06:25:04;;;;;;;13.73;8.57;;;10.50;99.90;;;;;;5032828;28;20037;-74
2023/04/09 06:27:30;;;;;;;9.63;8.40;;;10.40;99.90;;;;;;5047142;28;20044;-74
2023/04/09 06:29:56;;;;;;;10.85;9.23;;;10.20;99.90;;;;;;5052702;28;20033;-74
2023/04/09 06:32:22;;;;;;;10.63;8.60;;;10.20;99.90;;;;;;5051799;28;20091;-74
2023/04/09 06:34:48;;;;;;;9.93;8.32;;;10.30;99.90;;;;;;5051580;28;20025;-74
2023/04/09 06:37:14;;;;;;;11.30;8.75;;;10.40;99.90;;;;;;5051296;28;20065;-74
2023/04/09 06:39:40;;;;;;;10.15;8.38;;;10.60;99.90;;;;;;5051347;28;20059;-74
2023/04/09 06:42:06;;;;;;;12.13;9.80;;;10.60;99.90;;;;;;5052583;28;20025;-74
2023/04/09 06:44:34;;;;;;;12.75;10.27;;;10.60;99.90;;;;;;5052359;28;20395;-75
2023/04/09 06:47:01;;;;;;;12.18;9.00;;;10.60;99.90;;;;;;5050435;28;20045;-75
2023/04/09 06:49:27;;;;;;;10.90;8.50;;;10.80;99.90;;;;;;5051179;28;20025;-75
2023/04/09 06:51:53;;;;;;;11.43;8.35;;;10.80;99.90;;;;;;5032402;28;20440;-74
2023/04/09 06:54:19;;;;;;;12.05;8.80;;;10.80;99.90;;;;;;5031182;28;20033;-75
2023/04/09 06:56:45;;;;;;;11.65;7.88;;;10.80;99.90;;;;;;5014688;28;20044;-75
2023/04/09 06:59:12;;;;;;;12.80;9.50;;;11.00;99.90;;;;;;5032531;28;20029;-75
2023/04/09 07:01:38;;;;;;;12.65;8.05;;;11.10;99.90;;;;;;5030289;28;20021;-75
2023/04/09 07:04:04;;;;;;;11.73;8.15;;;11.20;99.90;;;;;;5031372;28;20033;-75
2023/04/09 07:06:30;;;;;;;10.15;8.15;;;11.30;99.90;;;;;;5030966;28;20373;-75
2023/04/09 07:08:56;;;;;;;12.25;9.13;;;11.40;99.90;;;;;;5031117;28;20037;-75
2023/04/09 07:11:22;;;;;;;10.90;7.95;;;11.40;99.90;;;;;;5031123;28;20033;-75
2023/04/09 07:13:49;;;;;;;14.55;8.00;;;11.40;99.90;;;;;;5030724;28;20488;-75
2023/04/09 07:16:15;;;;;;;9.90;7.88;;;11.50;99.90;;;;;;5030556;28;20057;-75
2023/04/09 07:18:41;;;;;;;9.93;7.90;;;11.60;99.90;;;;;;5032285;28;20029;-75
2023/04/09 07:21:07;;;;;;;9.35;8.05;;;11.50;99.90;;;;;;5032215;28;20464;-75
2023/04/09 07:23:35;;;;;;;12.40;8.38;;;11.50;99.90;;;;;;5032096;28;20037;-75
2023/04/09 07:26:04;;;;;;;10.23;7.90;;;11.70;99.90;;;;;;5031915;28;20053;-75
2023/04/09 07:28:30;;;;;;;9.88;8.32;;;11.90;99.90;;;;;;5050431;28;20027;-75
2023/04/09 07:30:57;;;;;;;12.50;8.18;;;12.20;99.90;;;;;;5050225;28;20037;-75
2023/04/09 07:33:23;;;;;;;9.18;8.20;;;12.00;99.90;;;;;;5033580;28;20041;-75
2023/04/09 07:35:49;;;;;;;10.68;8.35;;;11.80;99.90;;;;;;5050713;28;20037;-75
2023/04/09 07:38:15;;;;;;;9.77;8.52;;;11.60;99.90;;;;;;5050699;28;20025;-75
2023/04/09 07:40:41;;;;;;;10.27;8.02;;;11.30;99.90;;;;;;5053904;28;20395;-75
2023/04/09 07:43:07;;;;;;;9.77;8.60;;;11.30;99.90;;;;;;5055353;28;20033;-75
2023/04/09 07:45:34;;;;;;;7.70;6.07;;;11.30;99.90;;;;;;5055410;28;20044;-75
2023/04/09 07:48:00;;;;;;;12.77;8.70;;;11.50;99.90;;;;;;5054860;28;20032;-75
2023/04/09 07:50:26;;;;;;;9.93;6.60;;;11.80;99.90;;;;;;5046378;28;20040;-75
2023/04/09 07:52:52;;;;;;;11.13;8.93;;;11.90;99.90;;;;;;5033927;28;20056;-75
2023/04/09 07:55:19;;;;;;;10.68;7.35;;;11.80;99.90;;;;;;5034534;28;20041;-75
2023/04/09 07:57:45;;;;;;;12.93;8.73;;;11.80;99.90;;;;;;5035382;28;20033;-75
2023/04/09 08:00:11;;;;;;;10.13;6.70;;;11.80;99.90;;;;;;5001135;28;20396;-74
2023/04/09 08:02:37;;;;;;;9.20;7.88;;;12.00;99.90;;;;;;5035553;28;20036;-75
2023/04/09 08:05:04;;;;;;;10.65;7.75;;;12.10;99.90;;;;;;5017960;28;20456;-75
2023/04/09 08:07:30;;;;;;;9.93;7.95;;;12.30;99.90;;;;;;5033765;28;20056;-75
2023/04/09 08:09:56;;;;;;;9.77;7.63;;;12.50;99.90;;;;;;5017259;28;20491;-75
2023/04/09 08:12:22;;;;;;;9.43;8.13;;;12.80;99.90;;;;;;5034958;28;20033;-75
2023/04/09 08:14:48;;;;;;;8.18;7.38;;;13.00;99.90;;;;;;5034194;28;20412;-75
2023/04/09 08:17:14;;;;;;;10.07;7.38;;;13.30;99.90;;;;;;5033659;28;20121;-75
2023/04/09 08:19:40;;;;;;;8.95;8.15;;;13.30;99.90;;;;;;5035282;28;20404;-75
2023/04/09 08:22:06;;;;;;;10.55;7.68;;;13.30;99.90;;;;;;5035173;28;20040;-74
2023/04/09 08:24:33;;;;;;;8.20;7.30;;;13.40;99.90;;;;;;5001100;28;20472;-75
2023/04/09 08:27:00;;;;;;;8.63;7.80;;;13.60;99.90;;;;;;5043476;28;20426;-75
2023/04/09 08:29:27;;;;;;;9.60;8.52;;;13.70;99.90;;;;;;5053886;28;20029;-74
2023/04/09 08:31:53;;;;;;;10.40;6.50;;;13.90;99.90;;;;;;5053167;28;20041;-75
2023/04/09 08:34:20;;;;;;;8.82;7.18;;;14.10;99.90;;;;;;5054939;28;20486;-75
2023/04/09 08:36:48;;;;;;;8.95;7.82;;;14.10;99.90;;;;;;5053788;28;20033;-75
2023/04/09 08:39:17;;;;;;;7.93;7.13;;;14.50;99.90;;;;;;5053594;28;20387;-75
2023/04/09 08:41:43;;;;;;;8.13;6.50;;;14.70;99.90;;;;;;5053156;28;20052;-75
2023/04/09 08:44:10;;;;;;;9.25;8.07;;;14.70;99.90;;;;;;5053502;28;20031;-74
2023/04/09 08:46:36;;;;;;;8.77;7.88;;;14.70;99.90;;;;;;5054247;28;20049;-75
2023/04/09 08:49:02;;;;;;;8.13;7.32;;;15.00;99.90;;;;;;5053454;28;20032;-75
2023/04/09 08:51:28;;;;;;;5.60;5.10;;;15.30;99.90;;;;;;5036407;28;20496;-74
2023/04/09 08:53:58;;;;;;;6.78;6.10;;;15.20;99.90;;;;;;5033421;28;20022;-75
2023/04/09 08:56:25;;;;;;;6.53;5.13;;;15.10;99.90;;;;;;5033168;28;20035;-75
2023/04/09 08:58:52;;;;;;;9.55;7.53;;;15.10;99.90;;;;;;5033052;28;20038;-74
2023/04/09 09:01:21;;;;;;;7.50;6.80;;;14.90;99.90;;;;;;5033986;28;20033;-75
2023/04/09 09:03:58;;;;;;;8.48;7.68;;;15.10;99.90;;;;;;5034460;28;20353;-75
2023/04/09 09:06:31;;;;;;;7.55;6.78;;;15.30;99.90;;;;;;5033127;28;20034;-75
2023/04/09 09:09:15;;;;;;;7.35;6.63;;;15.50;99.90;;;;;;5034453;28;20025;-75
2023/04/09 09:11:47;;;;;;;8.82;7.93;;;15.50;99.90;;;;;;5016343;28;20029;-75
2023/04/09 09:14:13;;;;;;;;;;;15.70;99.90;;;;;;5033635;28;20044;-74
2023/04/09 09:16:55;;;;;;;9.25;7.75;;;15.90;99.90;;;;;;5033480;28;19916;-74
2023/04/09 09:19:24;;;;;;;8.38;7.63;;;15.80;99.90;;;;;;5032951;28;20045;-75
2023/04/09 09:22:01;;;;;;;11.10;7.78;;;16.00;99.90;;;;;;5034052;28;20033;-75
2023/04/09 09:24:27;;;;;;;8.48;7.63;;;16.10;99.90;;;;;;5032610;28;20503;-75
2023/04/09 09:26:54;;;;;;;8.73;7.82;;;16.20;99.90;;;;;;5041924;28;20037;-75
2023/04/09 09:29:20;;;;;;;8.82;7.88;;;16.50;99.90;;;;;;5052721;28;20028;-75
2023/04/09 09:31:48;;;;;;;8.63;7.82;;;16.70;99.90;;;;;;5052230;28;20510;-75
2023/04/09 09:34:16;;;;;;;8.38;7.53;;;16.90;99.90;;;;;;5052667;28;20021;-75
2023/04/09 09:36:42;;;;;;;8.35;7.65;;;17.00;99.90;;;;;;5052617;28;20032;-75
2023/04/09 09:39:11;;;;;;;8.43;7.75;;;17.10;99.90;;;;;;5035511;28;20040;-75
2023/04/09 09:41:38;;;;;;;8.15;7.45;;;17.20;99.90;;;;;;5053606;28;20032;-75
2023/04/09 09:44:08;;;;;;;8.00;7.30;;;17.30;99.90;;;;;;5052469;28;20017;-75
2023/04/09 09:46:39;;;;;;;8.70;7.17;;;17.60;99.90;;;;;;5051888;28;20037;-75
2023/04/09 09:49:05;;;;;;;8.05;7.40;;;17.60;99.90;;;;;;5053344;28;20371;-75
2023/04/09 09:51:33;;;;;;;7.53;6.93;;;17.60;99.90;;;;;;5034991;28;20060;-75
2023/04/09 09:53:59;;;;;;;7.75;6.93;;;17.60;99.90;;;;;;5031995;28;20033;-75
2023/04/09 09:56:36;;;;;;;8.23;7.43;;;17.60;99.90;;;;;;5015825;28;20030;-75
2023/04/09 09:59:06;;;;;;;8.10;7.40;;;17.80;99.90;;;;;;5015382;28;20034;-75
2023/04/09 10:01:34;;;;;;;7.60;6.90;;;18.10;99.90;;;;;;5032767;28;20041;-75
2023/04/09 10:04:00;;;;;;;7.65;6.95;;;18.20;99.90;;;;;;5033174;28;20026;-75
2023/04/09 10:06:26;;;;;;;8.43;7.05;;;18.40;99.90;;;;;;5015601;28;20042;-75
2023/04/09 10:08:56;;;;;;;7.20;6.60;;;18.30;99.90;;;;;;5031741;28;20033;-75
2023/04/09 10:11:22;;;;;;;7.00;6.28;;;18.20;99.90;;;;;;5015833;28;20032;-75
2023/04/09 10:13:58;;;;;;;7.47;6.70;;;18.20;99.90;;;;;;5032054;28;20030;-75
2023/04/09 10:16:25;;;;;;;7.15;6.65;;;18.30;99.90;;;;;;5015010;28;20037;-75
2023/04/09 10:18:54;;;;;;;7.13;6.53;;;18.30;99.90;;;;;;5031912;28;20029;-75
2023/04/09 10:21:41;;;;;;;7.53;6.82;;;18.40;99.90;;;;;;5031830;28;20033;-75
2023/04/09 10:24:07;;;;;;;7.18;6.57;;;18.50;99.90;;;;;;5017324;28;20044;-75
2023/04/09 10:26:35;;;;;;;7.63;6.88;;;18.80;99.90;;;;;;5038093;28;20036;-75
2023/04/09 10:29:14;;;;;;;7.22;6.63;;;18.90;99.90;;;;;;5050754;28;20041;-75
2023/04/09 10:31:50;;;;;;;6.90;6.40;;;18.40;99.90;;;;;;5050245;28;20487;-75
2023/04/09 10:34:17;;;;;;;8.05;7.40;;;18.70;99.90;;;;;;5051456;28;20038;-75
2023/04/09 10:36:45;;;;;;;6.95;6.47;;;19.00;99.90;;;;;;5051544;28;20028;-76
2023/04/09 10:39:12;;;;;;;7.68;7.07;;;19.30;99.90;;;;;;5051117;28;20060;-75
2023/04/09 10:41:38;;;;;;;7.15;6.47;;;19.40;99.90;;;;;;5051364;28;20033;-75
2023/04/09 10:44:25;;;;;;;6.90;6.43;;;19.30;99.90;;;;;;5051458;28;20021;-75
2023/04/09 10:46:54;;;;;;;7.32;6.82;;;19.40;99.90;;;;;;5050836;28;20048;-75
2023/04/09 10:49:21;;;;;;;7.10;6.68;;;19.70;99.90;;;;;;5051365;28;20025;-76
2023/04/09 10:51:52;;;;;;;6.90;6.40;;;19.80;99.90;;;;;;5031444;28;20064;-75
2023/04/09 10:54:33;;;;;;;6.90;6.40;;;20.10;99.90;;;;;;5031338;28;20027;-75
2023/04/09 10:57:15;;;;;;;6.63;6.13;;;20.20;99.90;;;;;;5030940;28;20384;-75
2023/04/09 10:59:46;;;;;;;7.35;6.78;;;19.70;99.90;;;;;;5031074;28;20029;-75
2023/04/09 11:02:36;;;;;;;7.78;7.18;;;19.60;99.90;;;;;;5030714;28;20029;-75
2023/04/09 11:05:19;;;;;;;6.83;6.27;;;19.80;99.90;;;;;;5031252;28;20041;-75
2023/04/09 11:08:04;;;;;;;6.68;6.18;;;20.20;99.60;;;;;;5030735;28;20770;-75
2023/04/09 11:10:31;;;;;;;6.53;6.03;;;19.90;98.70;;;;;;5031174;28;20033;-75
2023/04/09 11:12:57;;;;;;;6.68;6.07;;;20.10;99.20;;;;;;5031006;28;20037;-76
2023/04/09 11:15:23;;;;;;;6.78;6.20;;;20.40;99.20;;;;;;5031151;28;20052;-75
2023/04/09 11:17:49;;;;;;;6.32;5.72;;;20.60;97.80;;;;;;5030695;28;20033;-75
2023/04/09 11:20:17;;;;;;;6.63;6.22;;;20.80;97.70;;;;;;5014283;28;20033;-75
2023/04/09 11:22:43;;;;;;;6.68;6.25;;;21.00;97.50;;;;;;5014689;28;20480;-76
2023/04/09 11:25:09;;;;;;;6.93;6.43;;;21.30;97.30;;;;;;5031063;28;20040;-76
2023/04/09 11:27:38;;;;;;;6.22;5.78;;;21.40;96.70;;;;;;5028796;28;20048;-75
2023/04/09 11:30:05;;;;;;;6.20;5.80;;;21.60;96.20;;;;;;5051807;28;20021;-74
2023/04/09 11:32:31;;;;;;;6.90;6.40;;;21.50;95.00;;;;;;5051950;28;20044;-75
2023/04/09 11:34:57;;;;;;;6.93;6.35;;;21.10;95.50;;;;;;5050492;28;20032;-76
2023/04/09 11:37:23;;;;;;;6.93;6.35;;;21.20;96.00;;;;;;5052146;28;20029;-75
2023/04/09 11:39:53;;;;;;;6.13;5.68;;;20.70;96.10;;;;;;5050755;28;20029;-75
2023/04/09 11:42:24;;;;;;;6.40;6.00;;;21.00;96.50;;;;;;5050661;28;20032;-76
2023/04/09 11:44:51;;;;;;;6.35;5.80;;;21.20;95.70;;;;;;5050824;28;20025;-75
2023/04/09 11:47:17;;;;;;;7.15;6.45;;;21.30;95.80;;;;;;5067003;28;20037;-76
2023/04/09 11:49:45;;;;;;;6.65;6.25;;;21.30;96.00;;;;;;5064760;28;20029;-75
2023/04/09 11:52:12;;;;;;;6.50;6.10;;;21.10;94.70;;;;;;5030553;28;20045;-76
2023/04/09 11:54:38;;;;;;;6.38;5.82;;;20.80;96.30;;;;;;5030796;28;20033;-76
2023/04/09 11:57:04;;;;;;;6.85;6.35;;;21.00;96.00;;;;;;5030745;28;20021;-76
2023/04/09 11:59:30;;;;;;;5.97;5.55;;;21.40;95.50;;;;;;5031867;28;20029;-75
2023/04/09 12:01:56;;;;;;;6.35;5.85;;;21.30;95.10;;;;;;5013193;28;20038;-76
2023/04/09 12:04:23;;;;;;;6.38;6.00;;;21.20;95.10;;;;;;5030315;28;20493;-75
2023/04/09 12:06:49;;;;;;;6.75;6.35;;;21.30;94.30;;;;;;5014142;28;20037;-75
2023/04/09 12:09:15;;;;;;;6.63;6.13;;;21.40;94.40;;;;;;5030630;28;20018;-76
2023/04/09 12:11:44;;;;;;;7.03;6.53;;;21.40;95.40;;;;;;5031660;28;20034;-75
2023/04/09 12:14:17;;;;;;;6.32;5.80;;;21.20;93.90;;;;;;5031665;28;20033;-75
2023/04/09 12:16:44;;;;;;;6.32;5.93;;;21.00;94.90;;;;;;5014199;28;20030;-75
2023/04/09 12:19:10;;;;;;;6.20;5.80;;;21.30;94.50;;;;;;5013847;28;20033;-75
2023/04/09 12:21:49;;;;;;;6.80;6.20;;;21.00;93.70;;;;;;5031614;28;20033;-75
2023/04/09 12:24:17;;;;;;;6.18;5.68;;;20.90;94.00;;;;;;5030469;28;20026;-76
2023/04/09 12:26:44;;;;;;;7.18;6.57;;;21.00;94.40;;;;;;5024457;28;20036;-75
2023/04/09 12:29:12;;;;;;;6.80;6.40;;;21.30;93.60;;;;;;5053775;28;20040;-75
2023/04/09 12:31:38;;;;;;;6.00;5.60;;;21.50;91.50;;;;;;5054414;28;20033;-75
2023/04/09 12:34:04;;;;;;;6.60;6.10;;;21.70;92.10;;;;;;5053555;28;20475;-76
2023/04/09 12:36:30;;;;;;;7.22;6.63;;;21.90;91.80;;;;;;5053199;28;20052;-76
2023/04/09 12:38:56;;;;;;;6.50;6.10;;;22.10;91.20;;;;;;5054861;28;20024;-75
2023/04/09 12:41:22;;;;;;;7.00;6.50;;;22.20;90.40;;;;;;5037026;28;20040;-75
2023/04/09 12:43:48;;;;;;;6.53;6.13;;;22.10;89.60;;;;;;5020312;28;20514;-76
2023/04/09 12:46:15;;;;;;;7.20;6.70;;;22.20;90.30;;;;;;5069836;28;20029;-76
2023/04/09 12:48:41;;;;;;;7.05;6.55;;;22.40;89.90;;;;;;5054488;28;20040;-76